Disclaimer

Please do not use the information listed here in-flight or in-navigation, as they are not provided to us by the airports but are provided by volunteers, so they might be outdated.

Search


Regions


Airport information page

Radio informations:
Tower (TWR) - 135.5 MHz
AOCS HF NET - 8974 MHz
Ground (GND) - 128.25 MHz
AMC OPS - 349.4 MHz
SYDNEY RADAR - 124.55 MHz
Common traffic adv. frequency (CTAF) - 135.5 MHz
Automatic Terminal Information Service (ATIS) - 347.0 MHz
SYDNEY APP - 135.9 MHz
RICCOM COMD POST - 261.7 MHz

Airport informations:
Latitude: 33° 36' 02.00" S
Longitude: 150° 46' 51.00" E
Elevation: 67 feet - 20 meters
Operating hours: Remarks
Operating agency: Military
Timezone: UTC+10(+11DT)
Fuel: Jet A1+, Jet A1 with icing inhibitor.

100/130 MIL Spec, low lead, aviation gasoline (BLUE)

Runway information:
10/28 - 7001 x 148 feet< - >2134 x 45 meters

Recent METARs:
YSRI 141615Z AUTO 00000KT 9999 // NCD 16/15 Q1014 RF00/0/000/4 PRESENT WEATHER SENSOR US
YSRI 141700Z AUTO 00000KT 3200 // NCD 14/14 Q1014 RF00/0/000/4 PRESENT WEATHER SENSOR US
YSRI 141719Z AUTO 31003KT 9999 // NCD 14/14 Q1014 RF00/0/000/4 PRESENT WEATHER SENSOR US

Airport on the map: